sensor_id;sensor_type;location;lat;lon;timestamp;pressure;altitude;pressure_sealevel;temperature;humidity
36062;BME280;22123;52.412;20.970;2023-07-20T00:01:24;99958.06;;;15.25;100.00
36062;BME280;22123;52.412;20.970;2023-07-20T00:03:50;99925.25;;;14.94;100.00
36062;BME280;22123;52.412;20.970;2023-07-20T00:06:15;99972.91;;;15.22;100.00
36062;BME280;22123;52.412;20.970;2023-07-20T00:08:41;99944.63;;;15.05;100.00
36062;BME280;22123;52.412;20.970;2023-07-20T00:11:07;99916.50;;;14.99;100.00
36062;BME280;22123;52.412;20.970;2023-07-20T00:13:33;99969.13;;;15.30;100.00
36062;BME280;22123;52.412;20.970;2023-07-20T00:15:58;99940.00;;;15.12;100.00
36062;BME280;22123;52.412;20.970;2023-07-20T00:18:24;99945.63;;;15.10;100.00
36062;BME280;22123;52.412;20.970;2023-07-20T00:20:50;99963.53;;;15.18;100.00
36062;BME280;22123;52.412;20.970;2023-07-20T00:23:16;99934.84;;;14.97;100.00
36062;BME280;22123;52.412;20.970;2023-07-20T00:25:42;99936.69;;;15.03;100.00
36062;BME280;22123;52.412;20.970;2023-07-20T00:28:07;99962.91;;;15.16;100.00
36062;BME280;22123;52.412;20.970;2023-07-20T00:30:33;99967.50;;;15.16;100.00
36062;BME280;22123;52.412;20.970;2023-07-20T00:32:59;99924.22;;;14.95;100.00
36062;BME280;22123;52.412;20.970;2023-07-20T00:35:25;99947.13;;;15.06;100.00
36062;BME280;22123;52.412;20.970;2023-07-20T00:37:51;99920.91;;;14.93;100.00
36062;BME280;22123;52.412;20.970;2023-07-20T00:40:17;99917.34;;;14.93;100.00
36062;BME280;22123;52.412;20.970;2023-07-20T00:42:43;99921.72;;;14.94;100.00
36062;BME280;22123;52.412;20.970;2023-07-20T00:45:09;99900.25;;;14.92;100.00
36062;BME280;22123;52.412;20.970;2023-07-20T00:47:34;99943.31;;;15.21;100.00
36062;BME280;22123;52.412;20.970;2023-07-20T00:50:02;99919.38;;;15.11;100.00
36062;BME280;22123;52.412;20.970;2023-07-20T00:52:29;99906.25;;;15.01;100.00
36062;BME280;22123;52.412;20.970;2023-07-20T00:54:55;99922.25;;;15.16;100.00
36062;BME280;22123;52.412;20.970;2023-07-20T00:57:22;99907.88;;;15.09;100.00
36062;BME280;22123;52.412;20.970;2023-07-20T00:59:49;99934.31;;;15.27;100.00
36062;BME280;22123;52.412;20.970;2023-07-20T01:02:15;99938.63;;;15.35;100.00
36062;BME280;22123;52.412;20.970;2023-07-20T01:04:41;99904.56;;;15.13;100.00
36062;BME280;22123;52.412;20.970;2023-07-20T01:09:45;99941.13;;;15.36;100.00
36062;BME280;22123;52.412;20.970;2023-07-20T01:12:26;99919.06;;;15.26;100.00
36062;BME280;22123;52.412;20.970;2023-07-20T01:14:54;99912.63;;;15.27;100.00
36062;BME280;22123;52.412;20.970;2023-07-20T01:17:20;99922.41;;;15.28;100.00
36062;BME280;22123;52.412;20.970;2023-07-20T01:19:46;99921.13;;;15.30;100.00
36062;BME280;22123;52.412;20.970;2023-07-20T01:22:27;99940.88;;;15.44;100.00
36062;BME280;22123;52.412;20.970;2023-07-20T01:30:45;99954.22;;;15.46;100.00
36062;BME280;22123;52.412;20.970;2023-07-20T01:33:13;99935.06;;;15.41;100.00
36062;BME280;22123;52.412;20.970;2023-07-20T01:35:41;99968.94;;;15.63;100.00
36062;BME280;22123;52.412;20.970;2023-07-20T01:38:08;99910.47;;;15.36;100.00
36062;BME280;22123;52.412;20.970;2023-07-20T01:40:35;99941.91;;;15.50;100.00
36062;BME280;22123;52.412;20.970;2023-07-20T01:43:02;99913.22;;;15.29;100.00
36062;BME280;22123;52.412;20.970;2023-07-20T01:45:28;99949.91;;;15.38;100.00
36062;BME280;22123;52.412;20.970;2023-07-20T01:47:54;99945.97;;;15.27;100.00
36062;BME280;22123;52.412;20.970;2023-07-20T01:50:19;99916.44;;;15.12;100.00
36062;BME280;22123;52.412;20.970;2023-07-20T01:52:45;99933.88;;;15.23;100.00
36062;BME280;22123;52.412;20.970;2023-07-20T01:55:11;99940.41;;;15.16;100.00
36062;BME280;22123;52.412;20.970;2023-07-20T01:57:37;99924.63;;;14.99;100.00
36062;BME280;22123;52.412;20.970;2023-07-20T02:00:03;99926.47;;;15.05;100.00
36062;BME280;22123;52.412;20.970;2023-07-20T02:02:29;99935.69;;;14.98;100.00
36062;BME280;22123;52.412;20.970;2023-07-20T02:04:55;99936.28;;;15.00;100.00
36062;BME280;22123;52.412;20.970;2023-07-20T02:07:24;99921.56;;;14.82;100.00
36062;BME280;22123;52.412;20.970;2023-07-20T02:09:50;99929.47;;;14.90;100.00
36062;BME280;22123;52.412;20.970;2023-07-20T02:12:16;99908.44;;;14.79;100.00
36062;BME280;22123;52.412;20.970;2023-07-20T02:14:42;99916.75;;;14.84;100.00
36062;BME280;22123;52.412;20.970;2023-07-20T02:17:07;99937.53;;;15.04;100.00
36062;BME280;22123;52.412;20.970;2023-07-20T02:19:34;99920.03;;;15.00;100.00
36062;BME280;22123;52.412;20.970;2023-07-20T02:22:00;99906.50;;;14.93;100.00
36062;BME280;22123;52.412;20.970;2023-07-20T02:24:26;99895.66;;;14.93;100.00
36062;BME280;22123;52.412;20.970;2023-07-20T02:26:51;99927.22;;;15.19;100.00
36062;BME280;22123;52.412;20.970;2023-07-20T02:29:17;99911.88;;;15.06;100.00
36062;BME280;22123;52.412;20.970;2023-07-20T02:31:43;99880.91;;;14.75;100.00
36062;BME280;22123;52.412;20.970;2023-07-20T02:34:09;99930.00;;;15.06;100.00
36062;BME280;22123;52.412;20.970;2023-07-20T02:36:35;99940.63;;;15.14;100.00
36062;BME280;22123;52.412;20.970;2023-07-20T02:39:00;99864.28;;;14.72;100.00
36062;BME280;22123;52.412;20.970;2023-07-20T02:41:26;99936.66;;;15.17;100.00
36062;BME280;22123;52.412;20.970;2023-07-20T02:43:52;99914.41;;;15.01;100.00
36062;BME280;22123;52.412;20.970;2023-07-20T02:46:18;99946.66;;;15.16;100.00
36062;BME280;22123;52.412;20.970;2023-07-20T02:48:43;99926.25;;;15.13;100.00
36062;BME280;22123;52.412;20.970;2023-07-20T02:51:09;99933.28;;;15.21;100.00
36062;BME280;22123;52.412;20.970;2023-07-20T02:53:35;99901.66;;;15.02;100.00
36062;BME280;22123;52.412;20.970;2023-07-20T02:56:01;99941.59;;;15.26;100.00
36062;BME280;22123;52.412;20.970;2023-07-20T02:58:26;99907.94;;;15.02;100.00
36062;BME280;22123;52.412;20.970;2023-07-20T03:00:52;99949.09;;;15.31;100.00
36062;BME280;22123;52.412;20.970;2023-07-20T03:03:18;99932.63;;;15.26;100.00
36062;BME280;22123;52.412;20.970;2023-07-20T03:05:44;99940.53;;;15.34;100.00
36062;BME280;22123;52.412;20.970;2023-07-20T03:08:09;99879.59;;;14.98;100.00
36062;BME280;22123;52.412;20.970;2023-07-20T03:10:41;99932.56;;;15.39;100.00
36062;BME280;22123;52.412;20.970;2023-07-20T03:13:07;99898.47;;;15.18;100.00
36062;BME280;22123;52.412;20.970;2023-07-20T03:15:34;99906.16;;;15.21;100.00
36062;BME280;22123;52.412;20.970;2023-07-20T03:18:00;99921.19;;;15.24;100.00
36062;BME280;22123;52.412;20.970;2023-07-20T03:20:25;99944.69;;;15.37;100.00
36062;BME280;22123;52.412;20.970;2023-07-20T03:22:51;99882.31;;;14.98;100.00
36062;BME280;22123;52.412;20.970;2023-07-20T03:25:17;99945.16;;;15.27;100.00
36062;BME280;22123;52.412;20.970;2023-07-20T03:27:43;99942.88;;;15.24;100.00
36062;BME280;22123;52.412;20.970;2023-07-20T03:30:08;99944.31;;;15.26;100.00
36062;BME280;22123;52.412;20.970;2023-07-20T03:32:35;99925.00;;;15.09;100.00
36062;BME280;22123;52.412;20.970;2023-07-20T03:35:00;99917.53;;;15.05;100.00
36062;BME280;22123;52.412;20.970;2023-07-20T03:37:26;99969.72;;;15.32;100.00
36062;BME280;22123;52.412;20.970;2023-07-20T03:39:52;99964.53;;;15.30;100.00
36062;BME280;22123;52.412;20.970;2023-07-20T03:42:18;99967.44;;;15.36;100.00
36062;BME280;22123;52.412;20.970;2023-07-20T03:44:44;99937.69;;;15.16;100.00
36062;BME280;22123;52.412;20.970;2023-07-20T03:47:10;99972.84;;;15.36;100.00
36062;BME280;22123;52.412;20.970;2023-07-20T03:49:36;99972.03;;;15.35;100.00
36062;BME280;22123;52.412;20.970;2023-07-20T03:52:01;99958.72;;;15.27;100.00
36062;BME280;22123;52.412;20.970;2023-07-20T03:54:27;99962.47;;;15.26;100.00
36062;BME280;22123;52.412;20.970;2023-07-20T03:56:53;99984.97;;;15.33;100.00
36062;BME280;22123;52.412;20.970;2023-07-20T03:59:20;100011.41;;;15.44;100.00
36062;BME280;22123;52.412;20.970;2023-07-20T04:01:46;100001.66;;;15.30;100.00
36062;BME280;22123;52.412;20.970;2023-07-20T04:04:13;100031.41;;;15.50;100.00
36062;BME280;22123;52.412;20.970;2023-07-20T04:06:39;99999.56;;;15.32;100.00
36062;BME280;22123;52.412;20.970;2023-07-20T04:09:05;100025.16;;;15.50;100.00
36062;BME280;22123;52.412;20.970;2023-07-20T04:11:31;100010.38;;;15.39;100.00
36062;BME280;22123;52.412;20.970;2023-07-20T04:13:56;100028.28;;;15.53;100.00
36062;BME280;22123;52.412;20.970;2023-07-20T04:16:22;99989.34;;;15.34;100.00
36062;BME280;22123;52.412;20.970;2023-07-20T04:18:48;100022.84;;;15.60;100.00
36062;BME280;22123;52.412;20.970;2023-07-20T04:21:14;99994.09;;;15.45;100.00
36062;BME280;22123;52.412;20.970;2023-07-20T04:23:40;100031.13;;;15.65;100.00
36062;BME280;22123;52.412;20.970;2023-07-20T04:26:05;99997.84;;;15.44;100.00
36062;BME280;22123;52.412;20.970;2023-07-20T04:28:31;100025.91;;;15.70;100.00
36062;BME280;22123;52.412;20.970;2023-07-20T04:31:11;100018.38;;;15.65;100.00
36062;BME280;22123;52.412;20.970;2023-07-20T04:33:37;100014.63;;;15.67;100.00
36062;BME280;22123;52.412;20.970;2023-07-20T04:36:03;100029.41;;;15.77;100.00
36062;BME280;22123;52.412;20.970;2023-07-20T04:38:29;100020.25;;;15.72;100.00
36062;BME280;22123;52.412;20.970;2023-07-20T04:40:55;100039.88;;;15.80;100.00
36062;BME280;22123;52.412;20.970;2023-07-20T04:43:20;100020.50;;;15.63;100.00
36062;BME280;22123;52.412;20.970;2023-07-20T04:45:46;100054.88;;;15.83;100.00
36062;BME280;22123;52.412;20.970;2023-07-20T04:48:14;100067.59;;;15.82;100.00
36062;BME280;22123;52.412;20.970;2023-07-20T04:50:41;100074.94;;;15.82;100.00
36062;BME280;22123;52.412;20.970;2023-07-20T04:53:08;100077.22;;;15.78;100.00
36062;BME280;22123;52.412;20.970;2023-07-20T04:55:34;100041.84;;;15.53;100.00
36062;BME280;22123;52.412;20.970;2023-07-20T04:58:00;100072.84;;;15.77;100.00
36062;BME280;22123;52.412;20.970;2023-07-20T05:00:26;100068.25;;;15.71;100.00
36062;BME280;22123;52.412;20.970;2023-07-20T05:02:52;100082.22;;;15.75;100.00
36062;BME280;22123;52.412;20.970;2023-07-20T05:05:18;100067.06;;;15.60;100.00
36062;BME280;22123;52.412;20.970;2023-07-20T05:07:44;100040.59;;;15.49;100.00
36062;BME280;22123;52.412;20.970;2023-07-20T05:10:10;100077.47;;;15.70;100.00
36062;BME280;22123;52.412;20.970;2023-07-20T05:12:36;100035.38;;;15.47;100.00
36062;BME280;22123;52.412;20.970;2023-07-20T05:15:03;100072.06;;;15.63;100.00
36062;BME280;22123;52.412;20.970;2023-07-20T05:17:29;100071.00;;;15.64;100.00
36062;BME280;22123;52.412;20.970;2023-07-20T05:19:55;100079.53;;;15.75;100.00
36062;BME280;22123;52.412;20.970;2023-07-20T05:22:20;100050.34;;;15.63;100.00
36062;BME280;22123;52.412;20.970;2023-07-20T05:24:46;100047.03;;;15.61;100.00
36062;BME280;22123;52.412;20.970;2023-07-20T05:27:12;100044.47;;;15.67;100.00
36062;BME280;22123;52.412;20.970;2023-07-20T05:29:44;100040.31;;;15.64;100.00
36062;BME280;22123;52.412;20.970;2023-07-20T05:32:09;100061.78;;;15.79;100.00
36062;BME280;22123;52.412;20.970;2023-07-20T05:34:35;100082.78;;;15.97;100.00
36062;BME280;22123;52.412;20.970;2023-07-20T05:37:01;100060.47;;;15.95;100.00
36062;BME280;22123;52.412;20.970;2023-07-20T05:39:27;100079.59;;;16.07;100.00
36062;BME280;22123;52.412;20.970;2023-07-20T05:41:52;100068.28;;;16.10;100.00
36062;BME280;22123;52.412;20.970;2023-07-20T05:44:18;100076.00;;;16.13;100.00
36062;BME280;22123;52.412;20.970;2023-07-20T05:46:44;100061.81;;;16.11;100.00
36062;BME280;22123;52.412;20.970;2023-07-20T05:49:10;100066.16;;;16.19;100.00
36062;BME280;22123;52.412;20.970;2023-07-20T05:51:35;100053.25;;;16.14;100.00
36062;BME280;22123;52.412;20.970;2023-07-20T05:54:01;100072.59;;;16.24;100.00
36062;BME280;22123;52.412;20.970;2023-07-20T05:56:27;100066.78;;;16.21;100.00
36062;BME280;22123;52.412;20.970;2023-07-20T05:58:53;100075.28;;;16.31;100.00
36062;BME280;22123;52.412;20.970;2023-07-20T06:01:19;100075.44;;;16.36;100.00
36062;BME280;22123;52.412;20.970;2023-07-20T06:03:44;100069.19;;;16.36;100.00
36062;BME280;22123;52.412;20.970;2023-07-20T06:06:10;100061.47;;;16.32;100.00
36062;BME280;22123;52.412;20.970;2023-07-20T06:08:36;100068.06;;;16.43;100.00
36062;BME280;22123;52.412;20.970;2023-07-20T06:11:02;100036.28;;;16.19;100.00
36062;BME280;22123;52.412;20.970;2023-07-20T06:13:27;100077.88;;;16.44;100.00
36062;BME280;22123;52.412;20.970;2023-07-20T06:15:53;100078.94;;;16.43;100.00
36062;BME280;22123;52.412;20.970;2023-07-20T06:18:19;100046.69;;;16.22;100.00
36062;BME280;22123;52.412;20.970;2023-07-20T06:20:52;100066.28;;;16.30;100.00
36062;BME280;22123;52.412;20.970;2023-07-20T06:23:21;100074.63;;;16.36;100.00
36062;BME280;22123;52.412;20.970;2023-07-20T06:25:47;100039.22;;;16.17;100.00
36062;BME280;22123;52.412;20.970;2023-07-20T06:28:13;100067.06;;;16.38;100.00
36062;BME280;22123;52.412;20.970;2023-07-20T06:30:38;100029.25;;;16.11;100.00
36062;BME280;22123;52.412;20.970;2023-07-20T06:33:04;100069.41;;;16.34;100.00
36062;BME280;22123;52.412;20.970;2023-07-20T06:35:30;100030.47;;;16.15;100.00
36062;BME280;22123;52.412;20.970;2023-07-20T06:37:56;100061.63;;;16.38;100.00
36062;BME280;22123;52.412;20.970;2023-07-20T06:40:21;100047.97;;;16.19;100.00
36062;BME280;22123;52.412;20.970;2023-07-20T06:42:47;100071.72;;;16.30;100.00
36062;BME280;22123;52.412;20.970;2023-07-20T06:45:13;100039.25;;;16.10;100.00
36062;BME280;22123;52.412;20.970;2023-07-20T06:47:39;100064.22;;;16.26;100.00
36062;BME280;22123;52.412;20.970;2023-07-20T06:50:06;100043.41;;;16.13;100.00
36062;BME280;22123;52.412;20.970;2023-07-20T06:52:33;100027.38;;;16.05;100.00
36062;BME280;22123;52.412;20.970;2023-07-20T06:54:58;100025.97;;;16.02;100.00
36062;BME280;22123;52.412;20.970;2023-07-20T06:57:25;100066.00;;;16.13;100.00
36062;BME280;22123;52.412;20.970;2023-07-20T06:59:50;100013.75;;;15.86;100.00
36062;BME280;22123;52.412;20.970;2023-07-20T07:02:16;100059.09;;;16.11;100.00
36062;BME280;22123;52.412;20.970;2023-07-20T07:04:43;100018.09;;;15.87;100.00
36062;BME280;22123;52.412;20.970;2023-07-20T07:07:09;100021.66;;;15.88;100.00
36062;BME280;22123;52.412;20.970;2023-07-20T07:09:35;100050.41;;;16.02;100.00
36062;BME280;22123;52.412;20.970;2023-07-20T07:12:01;100034.94;;;15.96;100.00
36062;BME280;22123;52.412;20.970;2023-07-20T07:14:26;100058.25;;;16.10;100.00
36062;BME280;22123;52.412;20.970;2023-07-20T07:16:52;100030.97;;;15.98;100.00
36062;BME280;22123;52.412;20.970;2023-07-20T07:19:18;100053.47;;;16.12;100.00
36062;BME280;22123;52.412;20.970;2023-07-20T07:21:44;100048.94;;;15.99;100.00
36062;BME280;22123;52.412;20.970;2023-07-20T07:24:09;100069.13;;;16.10;100.00
36062;BME280;22123;52.412;20.970;2023-07-20T07:26:36;100045.44;;;15.92;100.00
36062;BME280;22123;52.412;20.970;2023-07-20T07:29:03;100057.31;;;15.98;100.00
36062;BME280;22123;52.412;20.970;2023-07-20T07:31:29;100078.28;;;16.16;100.00
36062;BME280;22123;52.412;20.970;2023-07-20T07:33:56;100077.03;;;16.12;100.00
36062;BME280;22123;52.412;20.970;2023-07-20T07:36:22;100079.81;;;16.05;100.00
36062;BME280;22123;52.412;20.970;2023-07-20T07:38:48;100083.94;;;16.14;100.00
36062;BME280;22123;52.412;20.970;2023-07-20T07:41:13;100032.75;;;15.79;100.00
36062;BME280;22123;52.412;20.970;2023-07-20T07:43:39;100075.22;;;16.06;100.00
36062;BME280;22123;52.412;20.970;2023-07-20T07:46:05;100059.03;;;15.86;100.00
36062;BME280;22123;52.412;20.970;2023-07-20T07:48:31;100089.44;;;16.01;100.00
36062;BME280;22123;52.412;20.970;2023-07-20T07:50:56;100061.94;;;15.91;100.00
36062;BME280;22123;52.412;20.970;2023-07-20T07:53:22;100064.88;;;15.89;100.00
36062;BME280;22123;52.412;20.970;2023-07-20T07:55:48;100094.28;;;15.99;100.00
36062;BME280;22123;52.412;20.970;2023-07-20T07:58:14;100103.88;;;15.95;100.00
36062;BME280;22123;52.412;20.970;2023-07-20T08:00:40;100108.66;;;15.99;100.00
36062;BME280;22123;52.412;20.970;2023-07-20T08:03:06;100106.59;;;15.95;100.00
36062;BME280;22123;52.412;20.970;2023-07-20T08:05:33;100110.34;;;16.01;100.00
36062;BME280;22123;52.412;20.970;2023-07-20T08:07:59;100089.13;;;15.77;100.00
36062;BME280;22123;52.412;20.970;2023-07-20T08:10:24;100119.53;;;15.93;100.00
36062;BME280;22123;52.412;20.970;2023-07-20T08:12:50;100095.38;;;15.78;100.00
36062;BME280;22123;52.412;20.970;2023-07-20T08:15:16;100124.94;;;15.99;100.00
36062;BME280;22123;52.412;20.970;2023-07-20T08:17:42;100094.97;;;15.81;100.00
36062;BME280;22123;52.412;20.970;2023-07-20T08:20:08;100094.53;;;15.84;100.00
36062;BME280;22123;52.412;20.970;2023-07-20T08:22:34;100099.34;;;15.82;100.00
36062;BME280;22123;52.412;20.970;2023-07-20T08:25:00;100126.22;;;15.97;100.00
36062;BME280;22123;52.412;20.970;2023-07-20T08:27:25;100104.75;;;15.75;100.00
36062;BME280;22123;52.412;20.970;2023-07-20T08:29:51;100121.66;;;15.84;100.00
36062;BME280;22123;52.412;20.970;2023-07-20T08:32:17;100090.88;;;15.58;100.00
36062;BME280;22123;52.412;20.970;2023-07-20T08:34:43;100102.34;;;15.60;100.00
36062;BME280;22123;52.412;20.970;2023-07-20T08:37:09;100083.81;;;15.44;100.00
36062;BME280;22123;52.412;20.970;2023-07-20T08:39:35;100089.22;;;15.51;100.00
36062;BME280;22123;52.412;20.970;2023-07-20T08:42:00;100130.88;;;15.83;100.00
36062;BME280;22123;52.412;20.970;2023-07-20T08:44:26;100119.19;;;15.76;100.00
36062;BME280;22123;52.412;20.970;2023-07-20T08:46:53;100116.25;;;15.77;100.00
36062;BME280;22123;52.412;20.970;2023-07-20T08:49:20;100109.38;;;15.75;100.00
36062;BME280;22123;52.412;20.970;2023-07-20T08:51:46;100143.53;;;16.03;100.00
36062;BME280;22123;52.412;20.970;2023-07-20T08:54:13;100140.56;;;16.11;100.00
36062;BME280;22123;52.412;20.970;2023-07-20T08:56:40;100132.81;;;16.14;100.00
36062;BME280;22123;52.412;20.970;2023-07-20T08:59:08;100131.31;;;16.19;100.00
36062;BME280;22123;52.412;20.970;2023-07-20T09:01:35;100132.72;;;16.28;100.00
36062;BME280;22123;52.412;20.970;2023-07-20T09:04:01;100126.81;;;16.38;100.00
36062;BME280;22123;52.412;20.970;2023-07-20T09:06:27;100145.00;;;16.44;100.00
36062;BME280;22123;52.412;20.970;2023-07-20T09:08:53;100118.06;;;16.36;100.00
36062;BME280;22123;52.412;20.970;2023-07-20T09:11:19;100144.47;;;16.54;100.00
36062;BME280;22123;52.412;20.970;2023-07-20T09:13:44;100131.41;;;16.44;100.00
36062;BME280;22123;52.412;20.970;2023-07-20T09:16:13;100148.13;;;16.41;100.00
36062;BME280;22123;52.412;20.970;2023-07-20T09:18:39;100114.34;;;16.30;100.00
36062;BME280;22123;52.412;20.970;2023-07-20T09:21:05;100143.13;;;16.38;100.00
36062;BME280;22123;52.412;20.970;2023-07-20T09:23:38;100135.19;;;16.36;100.00
36062;BME280;22123;52.412;20.970;2023-07-20T09:26:13;100115.78;;;16.32;100.00
36062;BME280;22123;52.412;20.970;2023-07-20T09:28:52;100138.00;;;16.55;100.00
36062;BME280;22123;52.412;20.970;2023-07-20T09:31:20;100147.59;;;16.57;100.00
36062;BME280;22123;52.412;20.970;2023-07-20T09:33:47;100145.03;;;16.62;100.00
36062;BME280;22123;52.412;20.970;2023-07-20T09:36:13;100141.72;;;16.60;100.00
36062;BME280;22123;52.412;20.970;2023-07-20T09:38:41;100109.28;;;16.33;100.00
36062;BME280;22123;52.412;20.970;2023-07-20T09:41:07;100144.09;;;16.50;100.00
36062;BME280;22123;52.412;20.970;2023-07-20T09:43:35;100142.63;;;16.54;100.00
36062;BME280;22123;52.412;20.970;2023-07-20T09:46:02;100134.47;;;16.54;100.00
36062;BME280;22123;52.412;20.970;2023-07-20T09:48:29;100145.22;;;16.67;100.00
36062;BME280;22123;52.412;20.970;2023-07-20T09:50:56;100125.31;;;16.74;100.00
36062;BME280;22123;52.412;20.970;2023-07-20T09:53:25;100154.09;;;16.81;100.00
36062;BME280;22123;52.412;20.970;2023-07-20T09:55:52;100085.56;;;16.54;100.00
36062;BME280;22123;52.412;20.970;2023-07-20T09:58:18;100120.44;;;16.89;100.00
36062;BME280;22123;52.412;20.970;2023-07-20T10:00:45;100129.28;;;17.03;100.00
36062;BME280;22123;52.412;20.970;2023-07-20T10:03:14;100146.34;;;17.35;100.00
36062;BME280;22123;52.412;20.970;2023-07-20T10:05:48;100146.13;;;17.37;100.00
36062;BME280;22123;52.412;20.970;2023-07-20T10:08:18;100125.56;;;17.23;100.00
36062;BME280;22123;52.412;20.970;2023-07-20T10:10:47;100152.47;;;17.31;100.00
36062;BME280;22123;52.412;20.970;2023-07-20T10:13:17;100148.16;;;17.42;100.00
36062;BME280;22123;52.412;20.970;2023-07-20T10:15:46;100147.41;;;17.34;100.00
36062;BME280;22123;52.412;20.970;2023-07-20T10:18:38;100122.84;;;17.23;100.00
36062;BME280;22123;52.412;20.970;2023-07-20T10:21:01;100122.78;;;17.04;100.00
36062;BME280;22123;52.412;20.970;2023-07-20T10:23:29;100147.38;;;17.16;100.00
36062;BME280;22123;52.412;20.970;2023-07-20T10:25:55;100123.97;;;16.90;100.00
36062;BME280;22123;52.412;20.970;2023-07-20T10:28:22;100137.66;;;17.01;100.00
36062;BME280;22123;52.412;20.970;2023-07-20T10:30:48;100137.28;;;16.98;100.00
36062;BME280;22123;52.412;20.970;2023-07-20T10:33:14;100130.84;;;16.92;100.00
36062;BME280;22123;52.412;20.970;2023-07-20T10:36:02;100150.94;;;17.16;100.00
36062;BME280;22123;52.412;20.970;2023-07-20T10:41:28;100129.16;;;18.70;100.00
36062;BME280;22123;52.412;20.970;2023-07-20T10:44:09;100121.22;;;19.63;100.00
36062;BME280;22123;52.412;20.970;2023-07-20T10:46:44;100120.13;;;19.76;100.00
36062;BME280;22123;52.412;20.970;2023-07-20T10:49:11;100138.41;;;19.75;100.00
36062;BME280;22123;52.412;20.970;2023-07-20T10:51:42;100151.03;;;19.53;100.00
36062;BME280;22123;52.412;20.970;2023-07-20T10:54:33;100151.06;;;19.41;100.00
36062;BME280;22123;52.412;20.970;2023-07-20T10:59:41;100143.03;;;19.75;100.00
36062;BME280;22123;52.412;20.970;2023-07-20T11:02:08;100114.94;;;21.12;100.00
36062;BME280;22123;52.412;20.970;2023-07-20T11:04:41;100126.16;;;21.49;100.00
36062;BME280;22123;52.412;20.970;2023-07-20T11:07:08;100111.91;;;22.73;100.00
36062;BME280;22123;52.412;20.970;2023-07-20T11:09:37;100115.03;;;23.73;100.00
36062;BME280;22123;52.412;20.970;2023-07-20T11:12:14;100116.88;;;24.36;100.00
36062;BME280;22123;52.412;20.970;2023-07-20T11:14:42;100133.91;;;24.22;100.00
36062;BME280;22123;52.412;20.970;2023-07-20T11:17:15;100127.28;;;24.08;100.00
36062;BME280;22123;52.412;20.970;2023-07-20T11:19:41;100114.75;;;23.16;100.00
36062;BME280;22123;52.412;20.970;2023-07-20T11:22:07;100108.88;;;23.07;100.00
36062;BME280;22123;52.412;20.970;2023-07-20T11:24:33;100079.44;;;23.40;100.00
36062;BME280;22123;52.412;20.970;2023-07-20T11:26:59;100076.13;;;24.07;100.00
36062;BME280;22123;52.412;20.970;2023-07-20T11:29:25;100086.09;;;24.49;100.00
36062;BME280;22123;52.412;20.970;2023-07-20T11:31:51;100105.97;;;24.77;100.00
36062;BME280;22123;52.412;20.970;2023-07-20T11:34:19;100112.84;;;24.90;100.00
36062;BME280;22123;52.412;20.970;2023-07-20T11:36:47;100098.16;;;24.22;100.00
36062;BME280;22123;52.412;20.970;2023-07-20T11:39:15;100125.72;;;23.16;100.00
36062;BME280;22123;52.412;20.970;2023-07-20T11:41:46;100090.84;;;22.47;100.00
36062;BME280;22123;52.412;20.970;2023-07-20T11:44:12;100119.59;;;22.17;100.00
36062;BME280;22123;52.412;20.970;2023-07-20T11:46:39;100079.69;;;21.15;100.00
36062;BME280;22123;52.412;20.970;2023-07-20T11:49:05;100084.75;;;20.90;100.00
36062;BME280;22123;52.412;20.970;2023-07-20T11:51:31;100107.72;;;21.06;100.00
36062;BME280;22123;52.412;20.970;2023-07-20T11:53:58;100107.03;;;21.15;100.00
36062;BME280;22123;52.412;20.970;2023-07-20T11:56:25;100039.75;;;20.46;100.00
36062;BME280;22123;52.412;20.970;2023-07-20T11:58:54;100080.72;;;20.75;100.00
36062;BME280;22123;52.412;20.970;2023-07-20T12:01:20;100083.34;;;20.53;100.00
36062;BME280;22123;52.412;20.970;2023-07-20T12:03:48;100079.31;;;20.27;100.00
36062;BME280;22123;52.412;20.970;2023-07-20T12:06:13;100099.88;;;20.29;100.00
36062;BME280;22123;52.412;20.970;2023-07-20T12:08:43;100066.38;;;20.05;100.00
36062;BME280;22123;52.412;20.970;2023-07-20T12:11:09;100111.34;;;20.14;100.00
36062;BME280;22123;52.412;20.970;2023-07-20T12:13:44;100077.16;;;19.71;100.00
36062;BME280;22123;52.412;20.970;2023-07-20T12:16:14;100113.84;;;19.87;100.00
36062;BME280;22123;52.412;20.970;2023-07-20T12:18:42;100076.03;;;19.55;100.00
36062;BME280;22123;52.412;20.970;2023-07-20T12:21:09;100095.59;;;19.52;100.00
36062;BME280;22123;52.412;20.970;2023-07-20T12:23:39;100109.47;;;19.51;100.00
36062;BME280;22123;52.412;20.970;2023-07-20T12:26:07;100109.66;;;19.32;100.00
36062;BME280;22123;52.412;20.970;2023-07-20T12:28:33;100044.78;;;18.87;100.00
36062;BME280;22123;52.412;20.970;2023-07-20T12:30:59;100073.22;;;19.03;100.00
36062;BME280;22123;52.412;20.970;2023-07-20T12:33:24;100070.75;;;18.89;100.00
36062;BME280;22123;52.412;20.970;2023-07-20T12:35:50;100071.28;;;18.80;100.00
36062;BME280;22123;52.412;20.970;2023-07-20T12:38:16;100092.19;;;18.86;100.00
36062;BME280;22123;52.412;20.970;2023-07-20T12:40:42;100076.16;;;18.77;100.00
36062;BME280;22123;52.412;20.970;2023-07-20T12:43:08;100107.63;;;18.92;100.00
36062;BME280;22123;52.412;20.970;2023-07-20T12:45:34;100089.19;;;18.75;100.00